createdAt,value
2024-03-06T00:02:21.105Z,6.51
2024-03-06T00:04:48.776Z,6.43
2024-03-06T00:07:16.689Z,6.35
2024-03-06T00:09:43.996Z,6.33
2024-03-06T00:12:17.698Z,6.38
2024-03-06T00:14:45.279Z,6.28
2024-03-06T00:17:17.700Z,6.30
2024-03-06T00:19:45.332Z,6.24
2024-03-06T00:22:18.532Z,6.15
2024-03-06T00:24:54.459Z,6.28
2024-03-06T00:27:23.559Z,6.35
2024-03-06T00:29:51.000Z,6.28
2024-03-06T00:32:22.898Z,6.30
2024-03-06T00:34:50.460Z,6.38
2024-03-06T00:37:18.262Z,6.29
2024-03-06T00:39:45.438Z,6.30
2024-03-06T00:42:15.525Z,6.13
2024-03-06T00:44:53.857Z,6.08
2024-03-06T00:47:27.823Z,6.12
2024-03-06T00:49:58.046Z,6.13
2024-03-06T00:52:25.679Z,6.19
2024-03-06T00:54:56.159Z,6.22
2024-03-06T00:57:28.404Z,6.24
2024-03-06T01:00:01.015Z,6.23
2024-03-06T01:02:30.715Z,6.13
2024-03-06T01:04:58.154Z,6.08
2024-03-06T01:07:25.862Z,6.06
2024-03-06T01:09:53.415Z,6.07
2024-03-06T01:12:21.195Z,6.05
2024-03-06T01:14:50.939Z,6.07
2024-03-06T01:17:20.401Z,6.13
2024-03-06T01:19:49.952Z,6.09
2024-03-06T01:22:24.539Z,6.17
2024-03-06T01:24:51.954Z,6.35
2024-03-06T01:27:19.715Z,6.37
2024-03-06T01:29:47.118Z,6.49
2024-03-06T01:32:14.952Z,6.55
2024-03-06T01:34:46.870Z,6.50
2024-03-06T01:37:18.997Z,6.45
2024-03-06T01:39:48.349Z,6.42
2024-03-06T01:42:20.995Z,6.28
2024-03-06T01:44:48.298Z,6.24
2024-03-06T01:47:16.261Z,6.15
2024-03-06T01:49:45.844Z,6.06
2024-03-06T01:52:17.310Z,6.08
2024-03-06T01:54:46.114Z,6.02
2024-03-06T01:57:20.253Z,6.18
2024-03-06T01:59:48.621Z,6.18
2024-03-06T02:02:16.580Z,6.10
2024-03-06T02:04:45.279Z,6.08
2024-03-06T02:07:21.839Z,6.10
2024-03-06T02:09:49.374Z,6.17
2024-03-06T02:12:21.973Z,6.11
2024-03-06T02:14:49.494Z,6.00
2024-03-06T02:17:17.178Z,5.86
2024-03-06T02:19:51.091Z,5.89
2024-03-06T02:22:20.278Z,5.86
2024-03-06T02:24:52.398Z,5.83
2024-03-06T02:27:20.034Z,5.74
2024-03-06T02:29:47.578Z,5.69
2024-03-06T02:32:15.643Z,5.59
2024-03-06T02:34:43.356Z,5.49
2024-03-06T02:37:15.987Z,5.51
2024-03-06T02:39:44.831Z,5.61
2024-03-06T02:42:17.093Z,5.62
2024-03-06T02:44:50.421Z,5.55
2024-03-06T02:47:18.242Z,5.45
2024-03-06T02:49:45.643Z,5.45
2024-03-06T02:52:17.947Z,5.44
2024-03-06T02:54:50.980Z,5.44
2024-03-06T02:57:21.573Z,5.44
2024-03-06T02:59:49.009Z,5.33
2024-03-06T03:02:16.780Z,5.25
2024-03-06T03:04:48.423Z,5.22
2024-03-06T03:07:21.141Z,5.18
2024-03-06T03:09:55.986Z,5.18
2024-03-06T03:12:26.157Z,5.19
2024-03-06T03:14:55.329Z,5.05
2024-03-06T03:17:23.183Z,5.06
2024-03-06T03:19:50.606Z,5.02
2024-03-06T03:22:24.681Z,4.99
2024-03-06T03:24:56.961Z,4.91
2024-03-06T03:27:24.677Z,4.93
2024-03-06T03:29:55.064Z,4.84
2024-03-06T03:32:26.952Z,4.82
2024-03-06T03:34:54.917Z,4.87
2024-03-06T03:37:31.471Z,4.85
2024-03-06T03:40:06.447Z,4.71
2024-03-06T03:42:39.012Z,4.47
2024-03-06T03:45:07.000Z,4.22
2024-03-06T03:47:38.885Z,4.21
2024-03-06T03:50:10.848Z,4.07
2024-03-06T03:52:42.169Z,3.95
2024-03-06T03:55:11.261Z,3.90
2024-03-06T03:57:38.997Z,3.98
2024-03-06T04:00:07.745Z,4.02
2024-03-06T04:02:35.579Z,4.09
2024-03-06T04:05:05.858Z,4.14
2024-03-06T04:07:38.400Z,4.05
2024-03-06T04:10:07.135Z,4.03
2024-03-06T04:12:40.067Z,3.84
2024-03-06T04:15:10.701Z,3.74
2024-03-06T04:17:38.609Z,3.69
2024-03-06T04:20:06.690Z,3.73
2024-03-06T04:22:34.552Z,3.69
2024-03-06T04:25:06.454Z,3.64
2024-03-06T04:27:39.459Z,3.62
2024-03-06T04:30:08.113Z,3.68
2024-03-06T04:32:35.997Z,3.70
2024-03-06T04:35:03.460Z,3.56
2024-03-06T04:37:31.310Z,3.68
2024-03-06T04:40:02.061Z,3.81
2024-03-06T04:42:29.946Z,3.85
2024-03-06T04:44:58.741Z,3.88
2024-03-06T04:47:30.079Z,3.85
2024-03-06T04:49:57.984Z,3.85
2024-03-06T04:52:27.251Z,3.75
2024-03-06T04:54:59.458Z,3.70
2024-03-06T04:57:27.200Z,3.67
2024-03-06T04:59:56.053Z,3.71
2024-03-06T05:02:25.780Z,3.63
2024-03-06T06:00:34.106Z,2.90
2024-03-06T06:03:11.400Z,2.87
2024-03-06T06:05:39.065Z,2.86
2024-03-06T06:08:12.424Z,2.98
2024-03-06T06:10:44.450Z,3.11
2024-03-06T06:13:12.244Z,3.20
2024-03-06T06:15:40.161Z,3.20
2024-03-06T06:18:08.095Z,3.30
2024-03-06T06:20:35.826Z,3.39
2024-03-06T06:23:16.112Z,3.51
2024-03-06T06:25:43.684Z,3.44
2024-03-06T06:28:11.409Z,3.64
2024-03-06T06:30:38.762Z,3.84
2024-03-06T06:33:11.071Z,3.90
2024-03-06T06:35:38.798Z,4.03
2024-03-06T06:38:12.896Z,4.15
2024-03-06T06:40:40.363Z,4.28
2024-03-06T06:43:08.343Z,4.35
2024-03-06T06:45:37.984Z,4.33
2024-03-06T06:48:06.380Z,4.39
2024-03-06T06:50:33.843Z,4.40
2024-03-06T06:53:06.043Z,4.47
2024-03-06T06:55:38.993Z,4.53
2024-03-06T06:58:06.848Z,4.59
2024-03-06T07:00:35.052Z,4.66
2024-03-06T07:03:02.812Z,4.86
2024-03-06T07:05:30.337Z,4.97
2024-03-06T07:07:58.202Z,5.05
2024-03-06T07:10:25.631Z,5.18
2024-03-06T07:12:54.790Z,5.34
2024-03-06T07:15:22.172Z,5.38
2024-03-06T07:17:50.293Z,5.43
2024-03-06T07:20:18.144Z,5.44
2024-03-06T07:22:46.325Z,5.44
2024-03-06T07:25:16.479Z,5.51
2024-03-06T07:27:44.568Z,5.44
2024-03-06T07:30:15.120Z,5.48
2024-03-06T07:32:48.339Z,5.56
2024-03-06T07:35:16.138Z,5.66
2024-03-06T07:37:44.072Z,5.85
2024-03-06T07:40:12.016Z,6.12
2024-03-06T07:42:39.860Z,6.09
2024-03-06T07:45:07.906Z,6.26
2024-03-06T07:47:38.830Z,6.17
2024-03-06T07:50:12.532Z,6.22
2024-03-06T07:52:40.482Z,6.33
2024-03-06T07:55:10.484Z,6.57
2024-03-06T07:57:38.207Z,6.53
2024-03-06T08:00:06.951Z,6.71
2024-03-06T08:02:36.646Z,6.71
2024-03-06T08:05:10.350Z,6.98
2024-03-06T08:07:38.563Z,7.14
2024-03-06T08:10:06.694Z,7.12
2024-03-06T08:12:34.296Z,7.02
2024-03-06T08:15:02.380Z,7.14
2024-03-06T08:17:30.226Z,7.29
2024-03-06T08:20:00.734Z,7.57
2024-03-06T08:22:34.247Z,7.50
2024-03-06T08:25:07.499Z,7.41
2024-03-06T08:27:35.756Z,7.56
2024-03-06T08:30:03.419Z,7.96
2024-03-06T08:32:35.579Z,8.02
2024-03-06T08:35:03.706Z,8.23
2024-03-06T08:37:32.591Z,8.27
2024-03-06T08:40:00.663Z,7.87
2024-03-06T08:42:30.953Z,8.03
2024-03-06T08:44:58.582Z,8.26
2024-03-06T08:47:26.253Z,8.70
2024-03-06T08:49:54.203Z,8.87
2024-03-06T08:52:21.635Z,8.93
2024-03-06T08:54:54.184Z,9.06
2024-03-06T08:57:24.856Z,9.13
2024-03-06T08:59:53.393Z,9.33
2024-03-06T09:02:25.013Z,9.24
2024-03-06T09:04:53.492Z,9.13
2024-03-06T09:07:21.358Z,9.42
2024-03-06T09:09:50.554Z,9.94
2024-03-06T09:12:23.443Z,10.25
2024-03-06T09:14:55.495Z,10.75
2024-03-06T09:17:25.098Z,10.56
2024-03-06T09:20:00.444Z,10.57
2024-03-06T09:22:36.461Z,10.76
2024-03-06T09:25:08.913Z,10.72
2024-03-06T09:27:36.937Z,10.37
2024-03-06T09:30:05.122Z,10.28
2024-03-06T09:32:35.084Z,10.69
2024-03-06T09:35:02.879Z,11.21
2024-03-06T09:37:30.417Z,11.14
2024-03-06T09:39:58.214Z,11.20
2024-03-06T09:42:27.555Z,11.38
2024-03-06T09:44:55.125Z,11.49
2024-03-06T09:47:26.765Z,11.40
2024-03-06T09:50:00.557Z,11.71
2024-03-06T09:52:28.037Z,12.07
2024-03-06T09:54:57.363Z,12.37
2024-03-06T09:57:25.350Z,12.45
2024-03-06T10:00:02.459Z,12.54
2024-03-06T10:02:37.931Z,12.79
2024-03-06T10:05:06.329Z,12.70
2024-03-06T10:07:34.782Z,12.63
2024-03-06T10:10:06.192Z,12.39
2024-03-06T10:12:33.814Z,12.09
2024-03-06T10:15:12.496Z,11.51
2024-03-06T10:17:47.231Z,11.23
2024-03-06T10:20:24.197Z,11.49
2024-03-06T10:22:56.235Z,11.85
2024-03-06T10:25:27.548Z,12.25
2024-03-06T10:28:12.476Z,12.63
2024-03-06T10:30:46.271Z,12.77
2024-03-06T10:33:15.192Z,13.01
2024-03-06T10:35:44.348Z,13.00
2024-03-06T10:38:12.751Z,12.90
2024-03-06T10:40:41.236Z,12.60
2024-03-06T10:43:10.147Z,12.12
2024-03-06T10:45:47.805Z,11.97
2024-03-06T10:48:16.432Z,11.09
2024-03-06T10:50:47.780Z,10.91
2024-03-06T10:53:21.015Z,10.75
2024-03-06T10:55:51.531Z,10.71
2024-03-06T10:58:21.295Z,11.16
2024-03-06T11:00:55.237Z,11.44
2024-03-06T11:03:23.193Z,11.44
2024-03-06T11:05:50.560Z,11.10
2024-03-06T11:08:20.500Z,11.06
2024-03-06T11:10:48.408Z,10.98
2024-03-06T11:13:25.309Z,11.00
2024-03-06T11:15:59.592Z,10.86
2024-03-06T11:18:42.995Z,10.62
2024-03-06T11:21:29.602Z,10.22
2024-03-06T11:24:24.423Z,10.41
2024-03-06T11:26:57.105Z,10.72
2024-03-06T11:29:24.179Z,11.15
2024-03-06T11:32:13.784Z,11.60
2024-03-06T11:34:44.480Z,12.14
2024-03-06T11:37:12.160Z,11.36
2024-03-06T11:39:43.012Z,11.17
2024-03-06T11:42:12.404Z,10.78
2024-03-06T11:44:58.847Z,10.80
2024-03-06T11:47:36.549Z,10.43
2024-03-06T11:50:04.553Z,10.09
2024-03-06T11:52:32.358Z,10.22
2024-03-06T11:54:59.889Z,9.95
2024-03-06T11:57:28.552Z,9.66
2024-03-06T11:59:56.413Z,9.09
2024-03-06T12:02:23.955Z,8.75
2024-03-06T12:04:58.127Z,8.64
2024-03-06T12:07:28.770Z,8.62
2024-03-06T12:09:58.449Z,8.55
2024-03-06T12:12:25.847Z,8.56
2024-03-06T12:15:04.487Z,8.67
2024-03-06T12:17:32.045Z,8.54
2024-03-06T12:20:01.828Z,8.51
2024-03-06T12:22:29.480Z,8.32
2024-03-06T12:25:00.867Z,8.29
2024-03-06T12:27:28.641Z,8.17
2024-03-06T12:29:56.875Z,8.15
2024-03-06T12:32:24.577Z,8.04
2024-03-06T12:35:00.371Z,8.03
2024-03-06T12:37:36.463Z,7.90
2024-03-06T12:40:09.465Z,8.08
2024-03-06T12:42:37.000Z,7.92
2024-03-06T12:45:05.824Z,8.25
2024-03-06T12:47:33.281Z,8.32
2024-03-06T12:50:00.929Z,8.15
2024-03-06T12:52:33.400Z,8.25
2024-03-06T12:55:00.900Z,8.91
2024-03-06T12:57:33.997Z,9.25
2024-03-06T13:00:04.656Z,9.72
2024-03-06T13:02:32.052Z,9.92
2024-03-06T13:04:59.514Z,9.66
2024-03-06T13:07:27.222Z,9.60
2024-03-06T13:10:05.973Z,9.35
2024-03-06T13:12:34.147Z,8.81
2024-03-06T13:15:01.583Z,8.93
2024-03-06T13:17:31.715Z,8.94
2024-03-06T13:19:59.493Z,8.87
2024-03-06T13:22:26.864Z,8.60
2024-03-06T13:24:54.334Z,8.46
2024-03-06T13:27:29.118Z,8.37
2024-03-06T13:29:59.611Z,8.44
2024-03-06T13:32:31.517Z,8.47
2024-03-06T13:34:58.983Z,8.36
2024-03-06T13:37:26.310Z,8.40
2024-03-06T13:39:54.151Z,8.56
2024-03-06T13:42:21.736Z,8.66
2024-03-06T13:44:54.049Z,8.36
2024-03-06T13:47:21.877Z,8.43
2024-03-06T13:49:52.189Z,8.46
2024-03-06T13:52:24.434Z,8.40
2024-03-06T13:54:53.210Z,8.25
2024-03-06T13:57:20.567Z,8.28
2024-03-06T14:00:02.476Z,8.26
2024-03-06T14:02:30.323Z,8.18
2024-03-06T14:05:02.538Z,8.15
2024-03-06T14:07:33.255Z,8.15
2024-03-06T14:10:04.214Z,8.19
2024-03-06T14:12:36.933Z,8.21
2024-03-06T14:15:11.043Z,8.20
2024-03-06T14:17:38.444Z,8.33
2024-03-06T14:20:07.133Z,8.34
2024-03-06T14:22:34.683Z,8.38
2024-03-06T14:25:02.107Z,8.38
2024-03-06T14:27:29.823Z,8.24
2024-03-06T14:29:59.195Z,8.28
2024-03-06T14:32:32.200Z,8.27
2024-03-06T14:35:00.241Z,8.31
2024-03-06T14:37:27.547Z,8.27
2024-03-06T14:39:57.672Z,8.33
2024-03-06T14:42:25.567Z,8.40
2024-03-06T14:44:52.981Z,8.37
2024-03-06T14:47:24.613Z,8.34
2024-03-06T14:50:01.498Z,8.27
2024-03-06T14:52:29.137Z,8.31
2024-03-06T14:55:00.318Z,8.16
2024-03-06T14:57:32.517Z,8.07
2024-03-06T15:00:00.684Z,7.98
2024-03-06T15:02:34.678Z,8.02
2024-03-06T15:05:08.434Z,7.84
2024-03-06T15:07:35.994Z,7.95
2024-03-06T15:10:04.363Z,8.02
2024-03-06T15:12:36.477Z,7.71
2024-03-06T15:15:10.517Z,7.55
2024-03-06T15:17:42.512Z,7.44
2024-03-06T15:20:16.071Z,7.38
2024-03-06T15:22:50.482Z,7.20
2024-03-06T15:25:23.237Z,7.09
2024-03-06T15:27:55.475Z,7.08
2024-03-06T15:30:30.478Z,7.08
2024-03-06T15:32:58.274Z,7.09
2024-03-06T15:35:27.425Z,6.97
2024-03-06T15:37:54.908Z,7.02
2024-03-06T15:40:22.740Z,6.87
2024-03-06T15:42:54.258Z,6.49
2024-03-06T15:45:23.140Z,6.47
2024-03-06T15:47:51.169Z,6.38
2024-03-06T15:50:18.829Z,6.45
2024-03-06T15:52:52.049Z,6.42
2024-03-06T15:55:24.546Z,6.58
2024-03-06T15:57:51.981Z,6.57
2024-03-06T16:00:25.468Z,6.58
2024-03-06T16:02:53.859Z,6.45
2024-03-06T16:05:27.606Z,6.45
2024-03-06T16:08:05.272Z,6.45
2024-03-06T16:10:41.483Z,6.21
2024-03-06T16:13:12.295Z,6.17
2024-03-06T16:15:39.801Z,6.15
2024-03-06T16:18:11.958Z,6.03
2024-03-06T16:20:45.287Z,5.99
2024-03-06T16:23:19.640Z,5.91
2024-03-06T16:25:54.793Z,6.05
2024-03-06T16:28:31.732Z,6.17
2024-03-06T16:31:00.197Z,6.10
2024-03-06T16:33:27.819Z,6.05
2024-03-06T16:35:56.439Z,6.06
2024-03-06T16:38:26.891Z,6.09
2024-03-06T16:40:54.781Z,6.34
2024-03-06T16:43:23.004Z,6.54
2024-03-06T16:45:51.371Z,6.44
2024-03-06T16:48:19.048Z,6.55
2024-03-06T16:50:46.936Z,6.68
2024-03-06T16:53:14.613Z,6.72
2024-03-06T16:55:48.572Z,6.71
2024-03-06T16:58:24.377Z,6.68
2024-03-06T17:00:56.811Z,6.76
2024-03-06T17:03:24.970Z,6.77
2024-03-06T17:05:57.651Z,6.73
2024-03-06T17:08:29.495Z,6.71
2024-03-06T17:11:03.120Z,6.72
2024-03-06T17:13:35.818Z,6.74
2024-03-06T17:16:07.183Z,6.61
2024-03-06T17:18:35.420Z,6.54
2024-03-06T17:21:06.263Z,6.54
2024-03-06T17:23:33.787Z,6.59
2024-03-06T17:26:03.601Z,6.57
2024-03-06T17:28:31.540Z,6.65
2024-03-06T17:30:59.462Z,6.57
2024-03-06T17:33:27.261Z,6.48
2024-03-06T17:36:00.036Z,6.39
2024-03-06T17:38:33.551Z,6.42
2024-03-06T17:41:11.489Z,6.35
2024-03-06T17:43:39.209Z,6.33
2024-03-06T17:46:09.820Z,6.29
2024-03-06T17:48:40.283Z,6.13
2024-03-06T17:51:08.550Z,6.17
2024-03-06T17:53:38.797Z,6.26
2024-03-06T17:56:17.108Z,6.30
2024-03-06T17:58:46.842Z,6.22
2024-03-06T18:01:15.086Z,6.22
2024-03-06T18:03:46.417Z,6.26
2024-03-06T18:06:19.062Z,6.29
2024-03-06T18:08:49.106Z,6.23
2024-03-06T18:11:24.254Z,6.17
2024-03-06T18:13:52.263Z,6.17
2024-03-06T18:16:20.620Z,6.18
2024-03-06T18:18:51.174Z,6.17
2024-03-06T18:21:32.980Z,6.22
2024-03-06T18:24:05.720Z,6.14
2024-03-06T18:26:35.491Z,6.28
2024-03-06T18:29:22.515Z,6.30
2024-03-06T18:31:57.136Z,6.40
2024-03-06T18:34:37.318Z,6.48
2024-03-06T18:37:09.593Z,6.26
2024-03-06T18:39:38.116Z,6.20
2024-03-06T18:42:20.602Z,6.16
2024-03-06T18:44:51.450Z,6.29
2024-03-06T18:47:25.564Z,6.24
2024-03-06T18:49:59.593Z,6.20
2024-03-06T18:52:49.900Z,6.15
2024-03-06T18:55:18.241Z,6.18
2024-03-06T18:57:55.830Z,6.16
2024-03-06T19:00:24.288Z,6.20
2024-03-06T19:02:58.566Z,6.17
2024-03-06T19:05:26.857Z,6.22
2024-03-06T19:08:33.015Z,6.28
2024-03-06T19:10:56.651Z,6.21
2024-03-06T19:13:57.412Z,6.21
2024-03-06T19:16:43.145Z,6.32
2024-03-06T19:19:31.354Z,6.24
2024-03-06T19:22:02.315Z,6.25
2024-03-06T19:24:37.632Z,6.19
2024-03-06T19:27:11.554Z,6.22
2024-03-06T19:29:50.314Z,6.32
2024-03-06T19:32:34.086Z,6.41
2024-03-06T19:35:09.433Z,6.48
2024-03-06T19:37:48.202Z,6.35
2024-03-06T19:40:33.013Z,6.39
2024-03-06T19:43:04.717Z,6.50
2024-03-06T19:45:50.523Z,6.44
2024-03-06T19:48:19.767Z,6.52
2024-03-06T19:51:02.002Z,6.41
2024-03-06T19:53:29.859Z,6.43
2024-03-06T19:56:04.682Z,6.52
2024-03-06T19:58:47.696Z,6.45
2024-03-06T20:01:28.332Z,6.35
2024-03-06T20:04:00.538Z,6.36
2024-03-06T20:06:33.558Z,6.41
2024-03-06T20:09:01.706Z,6.54
2024-03-06T20:11:41.086Z,6.54
2024-03-06T20:14:11.766Z,6.51
2024-03-06T20:16:41.568Z,6.52
2024-03-06T20:19:16.553Z,6.49
2024-03-06T20:21:45.319Z,6.41
2024-03-06T20:25:17.435Z,6.50
2024-03-06T20:27:41.277Z,6.45
2024-03-06T20:30:09.422Z,6.26
2024-03-06T20:32:39.933Z,6.37
2024-03-06T20:35:08.594Z,6.39
2024-03-06T20:37:41.262Z,6.44
2024-03-06T20:40:14.635Z,6.49
2024-03-06T20:42:43.744Z,6.59
2024-03-06T20:45:12.196Z,6.53
2024-03-06T20:47:46.741Z,6.48
2024-03-06T20:50:18.579Z,6.56
2024-03-06T20:52:53.889Z,6.49
2024-03-06T20:55:22.224Z,6.35
2024-03-06T20:57:50.255Z,6.32
2024-03-06T21:00:20.512Z,6.38
2024-03-06T21:02:58.107Z,6.24
2024-03-06T21:05:25.429Z,6.17
2024-03-06T21:07:53.457Z,6.05
2024-03-06T21:10:20.969Z,6.07
2024-03-06T21:12:49.528Z,6.08
2024-03-06T21:15:17.481Z,6.17
2024-03-06T21:17:45.463Z,6.17
2024-03-06T21:20:18.196Z,6.10
2024-03-06T21:22:46.706Z,6.11
2024-03-06T21:25:14.818Z,5.99
2024-03-06T21:27:46.886Z,6.05
2024-03-06T21:30:14.622Z,6.06
2024-03-06T21:32:45.390Z,5.93
2024-03-06T21:35:14.565Z,5.96
2024-03-06T21:37:42.855Z,5.96
2024-03-06T21:40:11.132Z,5.88
2024-03-06T21:42:39.077Z,5.90
2024-03-06T21:45:07.336Z,5.68
2024-03-06T21:47:35.148Z,5.73
2024-03-06T21:50:07.585Z,5.56
2024-03-06T21:52:36.633Z,5.60
2024-03-06T21:55:09.462Z,5.43
2024-03-06T21:57:36.846Z,5.39
2024-03-06T22:00:05.957Z,5.41
2024-03-06T22:02:40.516Z,5.47
2024-03-06T22:05:12.501Z,5.38
2024-03-06T22:07:41.316Z,5.54
2024-03-06T22:10:14.141Z,5.63
2024-03-06T22:12:44.428Z,5.62
2024-03-06T22:15:17.657Z,5.67
2024-03-06T22:17:46.981Z,5.65
2024-03-06T22:20:21.382Z,5.42
2024-03-06T22:22:51.066Z,5.25
2024-03-06T22:25:19.207Z,5.29
2024-03-06T22:27:46.565Z,5.21
2024-03-06T22:30:24.447Z,5.22
2024-03-06T22:32:52.338Z,5.21
2024-03-06T22:35:20.216Z,5.19
2024-03-06T22:37:47.799Z,5.14
2024-03-06T22:40:20.913Z,5.24
2024-03-06T22:42:48.247Z,5.23
2024-03-06T22:45:15.924Z,5.05
2024-03-06T22:47:43.393Z,5.23
2024-03-06T22:50:15.950Z,5.13
2024-03-06T22:52:43.616Z,5.13
2024-03-06T22:55:11.349Z,5.11
2024-03-06T22:57:44.373Z,5.04
2024-03-06T23:00:18.047Z,5.05
2024-03-06T23:02:45.805Z,5.01
2024-03-06T23:05:25.620Z,5.05
2024-03-06T23:07:53.685Z,5.05
2024-03-06T23:10:21.881Z,5.10
2024-03-06T23:12:52.225Z,5.11
2024-03-06T23:15:25.117Z,5.09
2024-03-06T23:17:55.016Z,5.13
2024-03-06T23:20:23.082Z,5.13
2024-03-06T23:22:50.454Z,5.16
2024-03-06T23:25:18.622Z,5.05
2024-03-06T23:27:46.737Z,5.01
2024-03-06T23:30:17.442Z,5.02
2024-03-06T23:32:49.615Z,4.98
2024-03-06T23:35:17.566Z,4.92
2024-03-06T23:37:45.288Z,4.81
2024-03-06T23:40:16.709Z,4.78
2024-03-06T23:42:45.093Z,4.80
2024-03-06T23:45:14.375Z,4.79
2024-03-06T23:47:44.472Z,4.75
2024-03-06T23:50:13.309Z,4.87
2024-03-06T23:52:42.503Z,4.81
2024-03-06T23:55:11.148Z,4.92
2024-03-06T23:57:43.471Z,4.91
